sensor_id;sensor_type;location;lat;lon;timestamp;temperature;humidity
15888;DHT22;56032;51.324;12.376;2022-10-17T00:01:09;16.20;99.90
15888;DHT22;56032;51.324;12.376;2022-10-17T00:03:38;16.20;99.90
15888;DHT22;56032;51.324;12.376;2022-10-17T00:06:07;16.20;99.90
15888;DHT22;56032;51.324;12.376;2022-10-17T00:08:36;16.30;99.90
15888;DHT22;56032;51.324;12.376;2022-10-17T00:11:05;16.30;99.90
15888;DHT22;56032;51.324;12.376;2022-10-17T00:13:34;16.30;99.90
15888;DHT22;56032;51.324;12.376;2022-10-17T00:16:04;16.30;99.90
15888;DHT22;56032;51.324;12.376;2022-10-17T00:18:33;16.30;99.90
15888;DHT22;56032;51.324;12.376;2022-10-17T00:21:01;16.30;99.90
15888;DHT22;56032;51.324;12.376;2022-10-17T00:23:29;16.30;99.90
15888;DHT22;56032;51.324;12.376;2022-10-17T00:25:58;16.30;99.90
15888;DHT22;56032;51.324;12.376;2022-10-17T00:28:26;16.30;99.90
15888;DHT22;56032;51.324;12.376;2022-10-17T00:30:55;16.40;99.90
15888;DHT22;56032;51.324;12.376;2022-10-17T00:33:25;16.40;99.90
15888;DHT22;56032;51.324;12.376;2022-10-17T00:36:01;16.30;99.90
15888;DHT22;56032;51.324;12.376;2022-10-17T00:38:29;16.40;99.90
15888;DHT22;56032;51.324;12.376;2022-10-17T00:40:57;16.40;99.90
15888;DHT22;56032;51.324;12.376;2022-10-17T00:43:26;16.40;99.90
15888;DHT22;56032;51.324;12.376;2022-10-17T00:45:55;16.30;99.90
15888;DHT22;56032;51.324;12.376;2022-10-17T00:48:23;16.30;99.90
15888;DHT22;56032;51.324;12.376;2022-10-17T00:50:54;16.30;99.90
15888;DHT22;56032;51.324;12.376;2022-10-17T00:53:22;16.30;99.90
15888;DHT22;56032;51.324;12.376;2022-10-17T00:55:51;16.30;99.90
15888;DHT22;56032;51.324;12.376;2022-10-17T00:58:20;16.30;99.90
15888;DHT22;56032;51.324;12.376;2022-10-17T01:00:49;16.20;99.90
15888;DHT22;56032;51.324;12.376;2022-10-17T01:03:17;16.20;99.90
15888;DHT22;56032;51.324;12.376;2022-10-17T01:05:46;16.10;99.90
15888;DHT22;56032;51.324;12.376;2022-10-17T01:08:16;16.10;99.90
15888;DHT22;56032;51.324;12.376;2022-10-17T01:10:46;16.10;99.90
15888;DHT22;56032;51.324;12.376;2022-10-17T01:13:22;16.00;99.90
15888;DHT22;56032;51.324;12.376;2022-10-17T01:15:55;16.00;99.90
15888;DHT22;56032;51.324;12.376;2022-10-17T01:18:29;15.90;99.90
15888;DHT22;56032;51.324;12.376;2022-10-17T01:21:08;15.90;99.90
15888;DHT22;56032;51.324;12.376;2022-10-17T01:26:29;15.90;99.90
15888;DHT22;56032;51.324;12.376;2022-10-17T01:31:50;15.90;99.90
15888;DHT22;56032;51.324;12.376;2022-10-17T01:34:20;15.90;99.90
15888;DHT22;56032;51.324;12.376;2022-10-17T01:36:53;15.90;99.90
15888;DHT22;56032;51.324;12.376;2022-10-17T01:39:25;15.90;99.90
15888;DHT22;56032;51.324;12.376;2022-10-17T01:42:00;15.90;99.90
15888;DHT22;56032;51.324;12.376;2022-10-17T01:44:31;15.90;99.90
15888;DHT22;56032;51.324;12.376;2022-10-17T01:47:04;15.90;99.90
15888;DHT22;56032;51.324;12.376;2022-10-17T01:49:33;15.90;99.90
15888;DHT22;56032;51.324;12.376;2022-10-17T01:52:03;16.00;99.90
15888;DHT22;56032;51.324;12.376;2022-10-17T01:54:36;16.00;99.90
15888;DHT22;56032;51.324;12.376;2022-10-17T01:57:08;16.00;99.90
15888;DHT22;56032;51.324;12.376;2022-10-17T01:59:38;16.00;99.90
15888;DHT22;56032;51.324;12.376;2022-10-17T02:02:09;16.00;99.90
15888;DHT22;56032;51.324;12.376;2022-10-17T02:04:39;16.00;99.90
15888;DHT22;56032;51.324;12.376;2022-10-17T02:07:07;16.00;99.90
15888;DHT22;56032;51.324;12.376;2022-10-17T02:09:36;16.10;99.90
15888;DHT22;56032;51.324;12.376;2022-10-17T02:12:12;16.10;99.90
15888;DHT22;56032;51.324;12.376;2022-10-17T02:14:42;16.10;99.90
15888;DHT22;56032;51.324;12.376;2022-10-17T02:17:17;16.20;99.90
15888;DHT22;56032;51.324;12.376;2022-10-17T02:19:49;16.20;99.90
15888;DHT22;56032;51.324;12.376;2022-10-17T02:22:24;16.20;99.90
15888;DHT22;56032;51.324;12.376;2022-10-17T02:24:59;16.20;99.90
15888;DHT22;56032;51.324;12.376;2022-10-17T02:27:32;16.20;99.90
15888;DHT22;56032;51.324;12.376;2022-10-17T02:30:07;16.20;99.90
15888;DHT22;56032;51.324;12.376;2022-10-17T02:32:40;16.10;99.90
15888;DHT22;56032;51.324;12.376;2022-10-17T02:35:16;16.20;99.90
15888;DHT22;56032;51.324;12.376;2022-10-17T02:37:44;16.10;99.90
15888;DHT22;56032;51.324;12.376;2022-10-17T02:40:14;16.10;99.90
15888;DHT22;56032;51.324;12.376;2022-10-17T02:42:43;16.00;99.90
15888;DHT22;56032;51.324;12.376;2022-10-17T02:45:13;16.00;99.90
15888;DHT22;56032;51.324;12.376;2022-10-17T02:47:45;16.00;99.90
15888;DHT22;56032;51.324;12.376;2022-10-17T02:50:15;15.90;99.90
15888;DHT22;56032;51.324;12.376;2022-10-17T02:52:45;15.90;99.90
15888;DHT22;56032;51.324;12.376;2022-10-17T02:55:15;15.90;99.90
15888;DHT22;56032;51.324;12.376;2022-10-17T02:57:45;15.80;99.90
15888;DHT22;56032;51.324;12.376;2022-10-17T03:00:16;15.80;99.90
15888;DHT22;56032;51.324;12.376;2022-10-17T03:02:47;15.80;99.90
15888;DHT22;56032;51.324;12.376;2022-10-17T03:05:17;15.80;99.90
15888;DHT22;56032;51.324;12.376;2022-10-17T03:07:45;15.80;99.90
15888;DHT22;56032;51.324;12.376;2022-10-17T03:10:13;15.90;99.90
15888;DHT22;56032;51.324;12.376;2022-10-17T03:12:42;15.90;99.90
15888;DHT22;56032;51.324;12.376;2022-10-17T03:15:10;15.90;99.90
15888;DHT22;56032;51.324;12.376;2022-10-17T03:17:39;15.90;99.90
15888;DHT22;56032;51.324;12.376;2022-10-17T03:20:10;16.00;99.90
15888;DHT22;56032;51.324;12.376;2022-10-17T03:22:40;16.00;99.90
15888;DHT22;56032;51.324;12.376;2022-10-17T03:25:09;16.00;99.90
15888;DHT22;56032;51.324;12.376;2022-10-17T03:27:37;16.00;99.90
15888;DHT22;56032;51.324;12.376;2022-10-17T03:30:06;16.00;99.90
15888;DHT22;56032;51.324;12.376;2022-10-17T03:32:35;16.00;99.90
15888;DHT22;56032;51.324;12.376;2022-10-17T03:35:04;16.00;99.90
15888;DHT22;56032;51.324;12.376;2022-10-17T03:37:36;16.10;99.90
15888;DHT22;56032;51.324;12.376;2022-10-17T03:40:04;16.10;99.90
15888;DHT22;56032;51.324;12.376;2022-10-17T03:42:33;16.10;99.90
15888;DHT22;56032;51.324;12.376;2022-10-17T03:45:01;16.10;99.90
15888;DHT22;56032;51.324;12.376;2022-10-17T03:47:30;16.10;99.90
15888;DHT22;56032;51.324;12.376;2022-10-17T03:49:58;16.10;99.90
15888;DHT22;56032;51.324;12.376;2022-10-17T03:52:27;16.10;99.90
15888;DHT22;56032;51.324;12.376;2022-10-17T03:54:56;16.00;99.90
15888;DHT22;56032;51.324;12.376;2022-10-17T03:57:25;16.10;99.90
15888;DHT22;56032;51.324;12.376;2022-10-17T03:59:53;16.10;99.90
15888;DHT22;56032;51.324;12.376;2022-10-17T04:02:22;16.10;99.90
15888;DHT22;56032;51.324;12.376;2022-10-17T04:04:50;16.00;99.90
15888;DHT22;56032;51.324;12.376;2022-10-17T04:07:19;16.00;99.90
15888;DHT22;56032;51.324;12.376;2022-10-17T04:09:56;16.00;99.90
15888;DHT22;56032;51.324;12.376;2022-10-17T04:12:25;16.00;99.90
15888;DHT22;56032;51.324;12.376;2022-10-17T04:14:54;16.00;99.90
15888;DHT22;56032;51.324;12.376;2022-10-17T04:17:22;16.00;99.90
15888;DHT22;56032;51.324;12.376;2022-10-17T04:19:50;16.00;99.90
15888;DHT22;56032;51.324;12.376;2022-10-17T04:22:19;16.00;99.90
15888;DHT22;56032;51.324;12.376;2022-10-17T04:24:47;16.00;99.90
15888;DHT22;56032;51.324;12.376;2022-10-17T04:27:17;16.00;99.90
15888;DHT22;56032;51.324;12.376;2022-10-17T04:29:45;16.00;99.90
15888;DHT22;56032;51.324;12.376;2022-10-17T04:32:14;16.00;99.90
15888;DHT22;56032;51.324;12.376;2022-10-17T04:34:43;16.00;99.90
15888;DHT22;56032;51.324;12.376;2022-10-17T04:37:11;16.00;99.90
15888;DHT22;56032;51.324;12.376;2022-10-17T04:39:39;16.00;99.90
15888;DHT22;56032;51.324;12.376;2022-10-17T04:42:07;16.00;99.90
15888;DHT22;56032;51.324;12.376;2022-10-17T04:44:37;15.90;99.90
15888;DHT22;56032;51.324;12.376;2022-10-17T04:47:06;15.90;99.90
15888;DHT22;56032;51.324;12.376;2022-10-17T04:49:35;15.90;99.90
15888;DHT22;56032;51.324;12.376;2022-10-17T04:52:03;15.90;99.90
15888;DHT22;56032;51.324;12.376;2022-10-17T04:54:31;15.80;99.90
15888;DHT22;56032;51.324;12.376;2022-10-17T04:57:00;15.80;99.90
15888;DHT22;56032;51.324;12.376;2022-10-17T04:59:28;15.80;99.90
15888;DHT22;56032;51.324;12.376;2022-10-17T05:01:58;15.80;99.90
15888;DHT22;56032;51.324;12.376;2022-10-17T05:04:26;15.80;99.90
15888;DHT22;56032;51.324;12.376;2022-10-17T05:06:55;15.70;99.90
15888;DHT22;56032;51.324;12.376;2022-10-17T05:09:23;15.70;99.90
15888;DHT22;56032;51.324;12.376;2022-10-17T05:11:51;15.70;99.90
15888;DHT22;56032;51.324;12.376;2022-10-17T05:14:20;15.70;99.90
15888;DHT22;56032;51.324;12.376;2022-10-17T05:16:48;15.70;99.90
15888;DHT22;56032;51.324;12.376;2022-10-17T05:19:18;15.60;99.90
15888;DHT22;56032;51.324;12.376;2022-10-17T05:21:46;15.60;99.90
15888;DHT22;56032;51.324;12.376;2022-10-17T05:24:14;15.60;99.90
15888;DHT22;56032;51.324;12.376;2022-10-17T05:26:43;15.60;99.90
15888;DHT22;56032;51.324;12.376;2022-10-17T05:29:12;15.60;99.90
15888;DHT22;56032;51.324;12.376;2022-10-17T05:31:43;15.60;99.90
15888;DHT22;56032;51.324;12.376;2022-10-17T05:34:12;15.60;99.90
15888;DHT22;56032;51.324;12.376;2022-10-17T05:36:41;15.60;99.90
15888;DHT22;56032;51.324;12.376;2022-10-17T05:39:10;15.60;99.90
15888;DHT22;56032;51.324;12.376;2022-10-17T05:41:39;15.60;99.90
15888;DHT22;56032;51.324;12.376;2022-10-17T05:44:07;15.60;99.90
15888;DHT22;56032;51.324;12.376;2022-10-17T05:46:36;15.60;99.90
15888;DHT22;56032;51.324;12.376;2022-10-17T05:49:04;15.60;99.90
15888;DHT22;56032;51.324;12.376;2022-10-17T05:51:52;15.60;99.90
15888;DHT22;56032;51.324;12.376;2022-10-17T05:54:20;15.60;99.90
15888;DHT22;56032;51.324;12.376;2022-10-17T05:56:50;15.60;99.90
15888;DHT22;56032;51.324;12.376;2022-10-17T05:59:18;15.60;99.90
15888;DHT22;56032;51.324;12.376;2022-10-17T06:01:46;15.60;99.90
15888;DHT22;56032;51.324;12.376;2022-10-17T06:04:15;15.70;99.90
15888;DHT22;56032;51.324;12.376;2022-10-17T06:06:43;15.70;99.90
15888;DHT22;56032;51.324;12.376;2022-10-17T06:09:13;15.70;99.90
15888;DHT22;56032;51.324;12.376;2022-10-17T06:11:41;15.70;99.90
15888;DHT22;56032;51.324;12.376;2022-10-17T06:14:09;15.80;99.90
15888;DHT22;56032;51.324;12.376;2022-10-17T06:16:37;15.80;99.90
15888;DHT22;56032;51.324;12.376;2022-10-17T06:19:06;15.90;99.90
15888;DHT22;56032;51.324;12.376;2022-10-17T06:21:34;16.00;99.90
15888;DHT22;56032;51.324;12.376;2022-10-17T06:24:04;16.00;99.90
15888;DHT22;56032;51.324;12.376;2022-10-17T06:26:34;16.00;99.90
15888;DHT22;56032;51.324;12.376;2022-10-17T06:29:03;16.10;99.90
15888;DHT22;56032;51.324;12.376;2022-10-17T06:31:31;16.20;99.90
15888;DHT22;56032;51.324;12.376;2022-10-17T06:34:00;16.30;99.90
15888;DHT22;56032;51.324;12.376;2022-10-17T06:36:28;16.30;99.90
15888;DHT22;56032;51.324;12.376;2022-10-17T06:38:56;16.40;99.90
15888;DHT22;56032;51.324;12.376;2022-10-17T06:41:25;16.50;99.90
15888;DHT22;56032;51.324;12.376;2022-10-17T06:43:54;16.60;99.90
15888;DHT22;56032;51.324;12.376;2022-10-17T06:46:23;16.60;99.90
15888;DHT22;56032;51.324;12.376;2022-10-17T06:48:52;16.70;99.90
15888;DHT22;56032;51.324;12.376;2022-10-17T06:51:20;16.70;99.90
15888;DHT22;56032;51.324;12.376;2022-10-17T06:53:49;16.70;99.90
15888;DHT22;56032;51.324;12.376;2022-10-17T06:56:19;16.80;99.90
15888;DHT22;56032;51.324;12.376;2022-10-17T06:58:48;16.80;99.90
15888;DHT22;56032;51.324;12.376;2022-10-17T07:01:19;16.80;99.90
15888;DHT22;56032;51.324;12.376;2022-10-17T07:03:48;16.90;99.90
15888;DHT22;56032;51.324;12.376;2022-10-17T07:06:16;16.90;99.90
15888;DHT22;56032;51.324;12.376;2022-10-17T07:08:45;17.00;99.90
15888;DHT22;56032;51.324;12.376;2022-10-17T07:11:14;17.10;99.90
15888;DHT22;56032;51.324;12.376;2022-10-17T07:13:43;17.10;99.90
15888;DHT22;56032;51.324;12.376;2022-10-17T07:16:12;17.20;99.90
15888;DHT22;56032;51.324;12.376;2022-10-17T07:18:42;17.30;99.90
15888;DHT22;56032;51.324;12.376;2022-10-17T07:21:12;17.30;99.90
15888;DHT22;56032;51.324;12.376;2022-10-17T07:23:41;17.30;99.90
15888;DHT22;56032;51.324;12.376;2022-10-17T07:26:10;17.40;99.90
15888;DHT22;56032;51.324;12.376;2022-10-17T07:28:40;17.50;99.90
15888;DHT22;56032;51.324;12.376;2022-10-17T07:31:09;17.50;99.90
15888;DHT22;56032;51.324;12.376;2022-10-17T07:33:38;17.60;99.90
15888;DHT22;56032;51.324;12.376;2022-10-17T07:36:08;17.70;99.90
15888;DHT22;56032;51.324;12.376;2022-10-17T07:38:38;17.70;99.90
15888;DHT22;56032;51.324;12.376;2022-10-17T07:41:07;17.80;99.90
15888;DHT22;56032;51.324;12.376;2022-10-17T07:43:36;17.80;99.90
15888;DHT22;56032;51.324;12.376;2022-10-17T07:46:04;17.80;99.90
15888;DHT22;56032;51.324;12.376;2022-10-17T07:48:34;17.90;99.90
15888;DHT22;56032;51.324;12.376;2022-10-17T07:51:02;17.90;99.90
15888;DHT22;56032;51.324;12.376;2022-10-17T07:53:32;17.80;99.90
15888;DHT22;56032;51.324;12.376;2022-10-17T07:56:02;17.80;99.90
15888;DHT22;56032;51.324;12.376;2022-10-17T07:58:32;17.80;99.90
15888;DHT22;56032;51.324;12.376;2022-10-17T08:01:01;17.80;99.90
15888;DHT22;56032;51.324;12.376;2022-10-17T08:03:29;17.80;99.90
15888;DHT22;56032;51.324;12.376;2022-10-17T08:05:58;17.80;99.90
15888;DHT22;56032;51.324;12.376;2022-10-17T08:08:26;17.80;99.90
15888;DHT22;56032;51.324;12.376;2022-10-17T08:11:00;17.80;99.90
15888;DHT22;56032;51.324;12.376;2022-10-17T08:13:29;17.80;99.90
15888;DHT22;56032;51.324;12.376;2022-10-17T08:16:00;17.90;99.90
15888;DHT22;56032;51.324;12.376;2022-10-17T08:18:29;17.80;99.90
15888;DHT22;56032;51.324;12.376;2022-10-17T08:20:58;17.90;99.90
15888;DHT22;56032;51.324;12.376;2022-10-17T08:23:26;17.90;99.90
15888;DHT22;56032;51.324;12.376;2022-10-17T08:25:58;18.00;99.90
15888;DHT22;56032;51.324;12.376;2022-10-17T08:28:27;18.00;99.90
15888;DHT22;56032;51.324;12.376;2022-10-17T08:31:00;18.00;99.90
15888;DHT22;56032;51.324;12.376;2022-10-17T08:33:29;18.10;99.90
15888;DHT22;56032;51.324;12.376;2022-10-17T08:35:58;18.30;99.90
15888;DHT22;56032;51.324;12.376;2022-10-17T08:38:27;18.40;99.90
15888;DHT22;56032;51.324;12.376;2022-10-17T08:41:02;18.60;99.90
15888;DHT22;56032;51.324;12.376;2022-10-17T08:43:35;18.90;99.90
15888;DHT22;56032;51.324;12.376;2022-10-17T08:46:11;19.10;99.90
15888;DHT22;56032;51.324;12.376;2022-10-17T08:48:45;19.30;99.90
15888;DHT22;56032;51.324;12.376;2022-10-17T08:51:15;19.50;99.90
15888;DHT22;56032;51.324;12.376;2022-10-17T08:53:47;19.60;99.90
15888;DHT22;56032;51.324;12.376;2022-10-17T08:56:19;19.70;99.90
15888;DHT22;56032;51.324;12.376;2022-10-17T08:59:09;19.80;99.90
15888;DHT22;56032;51.324;12.376;2022-10-17T09:01:39;19.90;99.90
15888;DHT22;56032;51.324;12.376;2022-10-17T09:04:18;20.00;99.90
15888;DHT22;56032;51.324;12.376;2022-10-17T09:06:51;20.10;99.90
15888;DHT22;56032;51.324;12.376;2022-10-17T09:09:26;20.30;99.90
15888;DHT22;56032;51.324;12.376;2022-10-17T09:12:09;20.40;99.90
15888;DHT22;56032;51.324;12.376;2022-10-17T09:14:46;20.40;99.90
15888;DHT22;56032;51.324;12.376;2022-10-17T09:17:21;20.40;99.90
15888;DHT22;56032;51.324;12.376;2022-10-17T09:19:56;20.40;99.90
15888;DHT22;56032;51.324;12.376;2022-10-17T09:22:27;20.50;99.90
15888;DHT22;56032;51.324;12.376;2022-10-17T09:24:58;20.40;99.90
15888;DHT22;56032;51.324;12.376;2022-10-17T09:27:32;20.40;99.90
15888;DHT22;56032;51.324;12.376;2022-10-17T09:30:09;20.50;99.90
15888;DHT22;56032;51.324;12.376;2022-10-17T09:32:53;20.70;99.90
15888;DHT22;56032;51.324;12.376;2022-10-17T09:35:21;20.90;99.90
15888;DHT22;56032;51.324;12.376;2022-10-17T09:37:50;21.10;99.90
15888;DHT22;56032;51.324;12.376;2022-10-17T09:40:20;21.30;99.90
15888;DHT22;56032;51.324;12.376;2022-10-17T09:42:51;21.40;99.90
15888;DHT22;56032;51.324;12.376;2022-10-17T09:45:21;21.50;99.90
15888;DHT22;56032;51.324;12.376;2022-10-17T09:47:54;21.70;99.90
15888;DHT22;56032;51.324;12.376;2022-10-17T09:50:28;21.90;99.90
15888;DHT22;56032;51.324;12.376;2022-10-17T09:52:59;22.00;99.90
15888;DHT22;56032;51.324;12.376;2022-10-17T09:55:31;22.10;99.90
15888;DHT22;56032;51.324;12.376;2022-10-17T09:58:03;22.10;99.90
15888;DHT22;56032;51.324;12.376;2022-10-17T10:00:32;22.30;99.90
15888;DHT22;56032;51.324;12.376;2022-10-17T10:03:07;22.40;99.90
15888;DHT22;56032;51.324;12.376;2022-10-17T10:05:36;22.50;99.90
15888;DHT22;56032;51.324;12.376;2022-10-17T10:08:04;22.70;99.90
15888;DHT22;56032;51.324;12.376;2022-10-17T10:10:33;22.80;99.90
15888;DHT22;56032;51.324;12.376;2022-10-17T10:13:04;23.00;99.90
15888;DHT22;56032;51.324;12.376;2022-10-17T10:15:34;23.00;99.90
15888;DHT22;56032;51.324;12.376;2022-10-17T10:18:25;23.10;99.90
15888;DHT22;56032;51.324;12.376;2022-10-17T10:21:07;23.10;99.90
15888;DHT22;56032;51.324;12.376;2022-10-17T10:23:36;23.30;99.90
15888;DHT22;56032;51.324;12.376;2022-10-17T10:28:57;23.40;99.90
15888;DHT22;56032;51.324;12.376;2022-10-17T10:31:28;23.50;99.90
15888;DHT22;56032;51.324;12.376;2022-10-17T10:33:58;23.60;99.90
15888;DHT22;56032;51.324;12.376;2022-10-17T10:36:41;23.90;99.90
15888;DHT22;56032;51.324;12.376;2022-10-17T10:39:12;23.80;99.90
15888;DHT22;56032;51.324;12.376;2022-10-17T10:41:46;23.60;99.90
15888;DHT22;56032;51.324;12.376;2022-10-17T10:44:23;23.70;99.90
15888;DHT22;56032;51.324;12.376;2022-10-17T10:47:04;23.70;99.90
15888;DHT22;56032;51.324;12.376;2022-10-17T10:49:33;23.70;99.90
15888;DHT22;56032;51.324;12.376;2022-10-17T10:52:01;23.90;99.90
15888;DHT22;56032;51.324;12.376;2022-10-17T10:54:31;24.00;99.90
15888;DHT22;56032;51.324;12.376;2022-10-17T10:57:03;24.10;99.90
15888;DHT22;56032;51.324;12.376;2022-10-17T10:59:36;24.00;99.90
15888;DHT22;56032;51.324;12.376;2022-10-17T11:02:09;23.90;99.90
15888;DHT22;56032;51.324;12.376;2022-10-17T11:04:40;23.90;99.90
15888;DHT22;56032;51.324;12.376;2022-10-17T11:07:10;23.90;99.90
15888;DHT22;56032;51.324;12.376;2022-10-17T11:09:44;24.00;99.90
15888;DHT22;56032;51.324;12.376;2022-10-17T11:12:13;24.10;99.90
15888;DHT22;56032;51.324;12.376;2022-10-17T11:14:48;24.30;99.90
15888;DHT22;56032;51.324;12.376;2022-10-17T11:17:22;24.50;99.90
15888;DHT22;56032;51.324;12.376;2022-10-17T11:19:58;24.60;99.90
15888;DHT22;56032;51.324;12.376;2022-10-17T11:22:30;24.70;99.90
15888;DHT22;56032;51.324;12.376;2022-10-17T11:24:59;24.50;99.90
15888;DHT22;56032;51.324;12.376;2022-10-17T11:27:31;24.60;99.90
15888;DHT22;56032;51.324;12.376;2022-10-17T11:30:03;24.50;99.90
15888;DHT22;56032;51.324;12.376;2022-10-17T11:32:33;24.50;99.90
15888;DHT22;56032;51.324;12.376;2022-10-17T11:35:05;24.50;99.90
15888;DHT22;56032;51.324;12.376;2022-10-17T11:37:36;24.50;99.90
15888;DHT22;56032;51.324;12.376;2022-10-17T11:40:13;24.70;99.90
15888;DHT22;56032;51.324;12.376;2022-10-17T11:42:50;24.80;99.90
15888;DHT22;56032;51.324;12.376;2022-10-17T11:45:21;24.80;99.90
15888;DHT22;56032;51.324;12.376;2022-10-17T11:47:51;24.70;99.90
15888;DHT22;56032;51.324;12.376;2022-10-17T11:50:22;24.60;99.90
15888;DHT22;56032;51.324;12.376;2022-10-17T11:53:13;24.60;99.90
15888;DHT22;56032;51.324;12.376;2022-10-17T11:55:41;24.70;99.90
15888;DHT22;56032;51.324;12.376;2022-10-17T11:58:16;24.80;99.90
15888;DHT22;56032;51.324;12.376;2022-10-17T12:00:52;25.00;99.90
15888;DHT22;56032;51.324;12.376;2022-10-17T12:03:26;25.10;99.90
15888;DHT22;56032;51.324;12.376;2022-10-17T12:05:56;25.10;99.90
15888;DHT22;56032;51.324;12.376;2022-10-17T12:08:28;25.10;99.90
15888;DHT22;56032;51.324;12.376;2022-10-17T12:10:58;25.20;99.90
15888;DHT22;56032;51.324;12.376;2022-10-17T12:16:38;25.20;99.90
15888;DHT22;56032;51.324;12.376;2022-10-17T12:19:26;25.10;99.90
15888;DHT22;56032;51.324;12.376;2022-10-17T12:21:57;25.00;99.90
15888;DHT22;56032;51.324;12.376;2022-10-17T12:24:31;25.00;99.90
15888;DHT22;56032;51.324;12.376;2022-10-17T12:27:20;25.00;99.90
15888;DHT22;56032;51.324;12.376;2022-10-17T12:29:49;25.00;99.90
15888;DHT22;56032;51.324;12.376;2022-10-17T12:32:19;25.00;99.90
15888;DHT22;56032;51.324;12.376;2022-10-17T12:34:50;25.00;99.90
15888;DHT22;56032;51.324;12.376;2022-10-17T12:40:09;24.90;99.90
15888;DHT22;56032;51.324;12.376;2022-10-17T12:42:56;24.90;99.90
15888;DHT22;56032;51.324;12.376;2022-10-17T12:45:44;25.10;99.90
15888;DHT22;56032;51.324;12.376;2022-10-17T12:48:18;25.20;99.90
15888;DHT22;56032;51.324;12.376;2022-10-17T12:51:12;25.20;99.90
15888;DHT22;56032;51.324;12.376;2022-10-17T12:54:01;25.20;99.90
15888;DHT22;56032;51.324;12.376;2022-10-17T12:56:36;25.30;99.90
15888;DHT22;56032;51.324;12.376;2022-10-17T12:59:06;25.30;99.90
15888;DHT22;56032;51.324;12.376;2022-10-17T13:01:36;25.30;99.90
15888;DHT22;56032;51.324;12.376;2022-10-17T13:04:08;25.20;99.90
15888;DHT22;56032;51.324;12.376;2022-10-17T13:06:38;25.20;99.90
15888;DHT22;56032;51.324;12.376;2022-10-17T13:09:16;25.20;99.90
15888;DHT22;56032;51.324;12.376;2022-10-17T13:11:45;25.30;99.90
15888;DHT22;56032;51.324;12.376;2022-10-17T13:14:16;25.30;99.90
15888;DHT22;56032;51.324;12.376;2022-10-17T13:16:49;25.30;99.90
15888;DHT22;56032;51.324;12.376;2022-10-17T13:19:20;25.30;99.90
15888;DHT22;56032;51.324;12.376;2022-10-17T13:21:49;25.20;99.90
15888;DHT22;56032;51.324;12.376;2022-10-17T13:24:19;25.30;99.90
15888;DHT22;56032;51.324;12.376;2022-10-17T13:26:48;25.30;99.90
15888;DHT22;56032;51.324;12.376;2022-10-17T13:29:16;25.40;99.90
15888;DHT22;56032;51.324;12.376;2022-10-17T13:31:50;25.20;99.90
15888;DHT22;56032;51.324;12.376;2022-10-17T13:34:21;25.30;99.90
15888;DHT22;56032;51.324;12.376;2022-10-17T13:36:50;25.30;99.90
15888;DHT22;56032;51.324;12.376;2022-10-17T13:39:20;25.40;99.90
15888;DHT22;56032;51.324;12.376;2022-10-17T13:42:14;25.40;99.90
15888;DHT22;56032;51.324;12.376;2022-10-17T13:44:44;25.30;99.90
15888;DHT22;56032;51.324;12.376;2022-10-17T13:47:19;25.40;99.90
15888;DHT22;56032;51.324;12.376;2022-10-17T13:49:49;25.50;99.90
15888;DHT22;56032;51.324;12.376;2022-10-17T13:52:21;25.50;99.90
15888;DHT22;56032;51.324;12.376;2022-10-17T13:54:50;25.50;99.90
15888;DHT22;56032;51.324;12.376;2022-10-17T13:57:19;25.40;99.90
15888;DHT22;56032;51.324;12.376;2022-10-17T13:59:49;25.50;99.90
15888;DHT22;56032;51.324;12.376;2022-10-17T14:02:18;25.50;99.90
15888;DHT22;56032;51.324;12.376;2022-10-17T14:04:58;25.50;99.90
15888;DHT22;56032;51.324;12.376;2022-10-17T14:07:45;25.40;99.90
15888;DHT22;56032;51.324;12.376;2022-10-17T14:10:36;25.40;99.90
15888;DHT22;56032;51.324;12.376;2022-10-17T14:13:05;25.50;99.90
15888;DHT22;56032;51.324;12.376;2022-10-17T14:15:35;25.50;99.90
15888;DHT22;56032;51.324;12.376;2022-10-17T14:18:04;25.30;99.90
15888;DHT22;56032;51.324;12.376;2022-10-17T14:20:35;25.30;99.90
15888;DHT22;56032;51.324;12.376;2022-10-17T14:23:28;25.30;99.90
15888;DHT22;56032;51.324;12.376;2022-10-17T14:26:07;25.40;99.90
15888;DHT22;56032;51.324;12.376;2022-10-17T14:28:36;25.40;99.90
15888;DHT22;56032;51.324;12.376;2022-10-17T14:31:09;25.30;99.90
15888;DHT22;56032;51.324;12.376;2022-10-17T14:33:41;25.30;99.90
15888;DHT22;56032;51.324;12.376;2022-10-17T14:36:17;25.30;99.80
15888;DHT22;56032;51.324;12.376;2022-10-17T14:38:47;25.20;99.90
15888;DHT22;56032;51.324;12.376;2022-10-17T14:41:19;25.30;99.40
15888;DHT22;56032;51.324;12.376;2022-10-17T14:44:14;25.30;99.00
15888;DHT22;56032;51.324;12.376;2022-10-17T14:46:44;25.30;99.10
15888;DHT22;56032;51.324;12.376;2022-10-17T14:49:24;25.20;99.30
15888;DHT22;56032;51.324;12.376;2022-10-17T14:54:46;25.10;99.60
15888;DHT22;56032;51.324;12.376;2022-10-17T14:57:16;25.00;99.90
15888;DHT22;56032;51.324;12.376;2022-10-17T14:59:45;25.00;99.90
15888;DHT22;56032;51.324;12.376;2022-10-17T15:02:22;24.90;99.90
15888;DHT22;56032;51.324;12.376;2022-10-17T15:04:51;24.90;99.90
15888;DHT22;56032;51.324;12.376;2022-10-17T15:07:19;24.80;99.90
15888;DHT22;56032;51.324;12.376;2022-10-17T15:09:51;24.70;99.90
15888;DHT22;56032;51.324;12.376;2022-10-17T15:12:21;24.70;99.90
15888;DHT22;56032;51.324;12.376;2022-10-17T15:14:51;24.70;99.90
15888;DHT22;56032;51.324;12.376;2022-10-17T15:17:22;24.70;99.90
15888;DHT22;56032;51.324;12.376;2022-10-17T15:19:51;24.60;99.90
15888;DHT22;56032;51.324;12.376;2022-10-17T15:22:20;24.60;99.90
15888;DHT22;56032;51.324;12.376;2022-10-17T15:24:51;24.50;99.90
15888;DHT22;56032;51.324;12.376;2022-10-17T15:27:19;24.40;99.90
15888;DHT22;56032;51.324;12.376;2022-10-17T15:29:51;24.40;99.90
15888;DHT22;56032;51.324;12.376;2022-10-17T15:32:23;24.20;99.90
15888;DHT22;56032;51.324;12.376;2022-10-17T15:34:53;24.20;99.90
15888;DHT22;56032;51.324;12.376;2022-10-17T15:37:22;24.10;99.90
15888;DHT22;56032;51.324;12.376;2022-10-17T15:39:52;24.00;99.90
15888;DHT22;56032;51.324;12.376;2022-10-17T15:42:21;23.90;99.90
15888;DHT22;56032;51.324;12.376;2022-10-17T15:44:50;23.80;99.90
15888;DHT22;56032;51.324;12.376;2022-10-17T15:47:21;23.90;99.90
15888;DHT22;56032;51.324;12.376;2022-10-17T15:49:50;23.70;99.90
15888;DHT22;56032;51.324;12.376;2022-10-17T15:52:19;23.60;99.90
15888;DHT22;56032;51.324;12.376;2022-10-17T15:54:47;23.60;99.90
15888;DHT22;56032;51.324;12.376;2022-10-17T15:57:18;23.50;99.90